Time;durP1;ratioP1;P1;durP2;ratioP2;P2;SDS_P1;SDS_P2;PMS_P1;PMS_P2;Temp;Humidity;BMP_temperature;BMP_pressure;BME280_temperature;BME280_humidity;BME280_pressure;Samples;Min_cycle;Max_cycle;Signal;HPM_P1;HPM_P2
2021/07/28 00:00:22;;;;;;;7.78;4.35;;;;;22.50;100815.00;;;;5068508;28;20199;-74
2021/07/28 00:02:51;;;;;;;4.85;4.03;;;;;22.40;100815.00;;;;5085373;28;20202;-75
2021/07/28 00:05:18;;;;;;;5.70;4.57;;;;;22.50;100806.00;;;;5070430;28;20203;-75
2021/07/28 00:07:46;;;;;;;7.70;4.03;;;;;22.40;100812.00;;;;5067608;28;20790;-76
2021/07/28 00:10:13;;;;;;;6.03;4.72;;;;;22.40;100806.00;;;;5075765;28;21066;-76
2021/07/28 00:12:40;;;;;;;4.78;4.28;;;;;22.40;100806.00;;;;5085800;28;20206;-76
2021/07/28 00:15:09;;;;;;;8.75;4.30;;;;;22.40;100806.00;;;;5068600;28;20218;-76
2021/07/28 00:17:38;;;;;;;6.20;4.13;;;;;22.40;100799.00;;;;5068149;28;20221;-76
2021/07/28 00:20:12;;;;;;;5.28;4.00;;;;;22.30;100804.00;;;;5069982;28;20210;-76
2021/07/28 00:25:25;;;;;;;4.38;3.90;;;;;22.30;100796.00;;;;5068644;28;20202;-75
2021/07/28 00:27:52;;;;;;;5.95;4.55;;;;;22.30;100795.00;;;;5074959;28;20194;-76
2021/07/28 00:30:20;;;;;;;5.70;3.33;;;;;22.30;100795.00;;;;5073180;28;20210;-76
2021/07/28 00:32:47;;;;;;;4.57;3.63;;;;;22.20;100797.00;;;;5068100;28;20677;-76
2021/07/28 00:35:16;;;;;;;5.47;4.28;;;;;22.20;100797.00;;;;5067927;28;20230;-75
2021/07/28 00:37:44;;;;;;;5.88;4.43;;;;;22.20;100789.00;;;;5068433;28;20230;-76
2021/07/28 00:40:14;;;;;;;4.88;4.03;;;;;22.20;100788.00;;;;5072364;28;20253;-76
2021/07/28 00:42:41;;;;;;;4.72;3.80;;;;;22.20;100783.00;;;;5083088;28;20206;-76
2021/07/28 00:45:10;;;;;;;5.32;4.57;;;;;22.20;100785.00;;;;5073970;28;20199;-76
2021/07/28 00:47:37;;;;;;;5.20;3.60;;;;;22.10;100782.00;;;;5081725;28;20676;-76
2021/07/28 00:50:06;;;;;;;10.77;4.65;;;;;22.10;100784.00;;;;5078986;28;20194;-76
2021/07/28 00:52:37;;;;;;;5.57;4.57;;;;;22.10;100777.00;;;;5089089;28;20202;-76
2021/07/28 00:55:06;;;;;;;5.70;4.15;;;;;22.10;100781.00;;;;5073248;28;20249;-76
2021/07/28 00:57:33;;;;;;;5.32;4.20;;;;;22.10;100776.00;;;;5084076;28;20207;-76
2021/07/28 01:00:02;;;;;;;4.85;3.92;;;;;22.00;100779.00;;;;5071676;28;20203;-76
2021/07/28 01:02:29;;;;;;;6.18;4.00;;;;;22.00;100773.00;;;;5080867;28;20230;-76
2021/07/28 01:04:57;;;;;;;4.38;3.40;;;;;22.00;100773.00;;;;5071176;28;20201;-76
2021/07/28 01:07:24;;;;;;;5.63;3.78;;;;;22.00;100771.00;;;;5071838;28;20677;-76
2021/07/28 01:09:53;;;;;;;7.38;4.30;;;;;22.00;100767.00;;;;5071887;28;20202;-76
2021/07/28 01:12:20;;;;;;;4.78;3.83;;;;;22.00;100774.00;;;;5073154;28;20225;-76
2021/07/28 01:14:49;;;;;;;6.65;4.35;;;;;22.00;100772.00;;;;5071291;28;20195;-76
2021/07/28 01:17:17;;;;;;;6.22;3.78;;;;;22.00;100776.00;;;;5071569;28;20226;-76
2021/07/28 01:19:53;;;;;;;5.60;4.53;;;;;21.90;100769.00;;;;5073381;28;20669;-76
2021/07/28 01:22:22;;;;;;;5.32;3.80;;;;;21.90;100761.00;;;;5071339;28;20210;-76
2021/07/28 01:24:51;;;;;;;6.22;4.18;;;;;21.90;100768.00;;;;5087872;28;20205;-76
2021/07/28 01:27:18;;;;;;;5.93;4.40;;;;;21.90;100762.00;;;;5084634;28;20198;-76
2021/07/28 01:29:45;;;;;;;4.70;3.85;;;;;21.90;100762.00;;;;5090216;28;20210;-76
2021/07/28 01:32:15;;;;;;;4.60;4.10;;;;;21.90;100764.00;;;;5071795;28;20611;-76
2021/07/28 01:34:43;;;;;;;7.07;4.30;;;;;21.90;100756.00;;;;5088411;28;20198;-76
2021/07/28 01:37:13;;;;;;;7.00;4.20;;;;;21.90;100760.00;;;;5075137;28;20238;-76
2021/07/28 01:39:41;;;;;;;5.57;4.00;;;;;21.90;100757.00;;;;5071020;28;20203;-76
2021/07/28 01:42:09;;;;;;;5.47;4.80;;;;;21.80;100756.00;;;;5071540;28;20199;-76
2021/07/28 01:44:39;;;;;;;4.82;3.47;;;;;21.80;100748.00;;;;5071342;28;20210;-76
2021/07/28 01:47:06;;;;;;;4.95;3.65;;;;;21.80;100753.00;;;;5081902;28;20191;-76
2021/07/28 01:49:33;;;;;;;5.60;4.20;;;;;21.80;100749.00;;;;5076971;28;20214;-76
2021/07/28 01:52:01;;;;;;;5.28;4.03;;;;;21.80;100748.00;;;;5086788;28;20217;-76
2021/07/28 01:54:28;;;;;;;4.90;4.13;;;;;21.80;100746.00;;;;5084495;28;20202;-75
2021/07/28 01:56:55;;;;;;;5.45;3.55;;;;;21.80;100744.00;;;;5084595;28;20227;-75
2021/07/28 01:59:25;;;;;;;7.13;4.30;;;;;21.80;100744.00;;;;5070810;28;20218;-75
2021/07/28 02:01:52;;;;;;;6.45;3.67;;;;;21.80;100745.00;;;;5093464;28;20279;-75
2021/07/28 02:04:20;;;;;;;7.88;3.95;;;;;21.80;100745.00;;;;5077644;28;20225;-75
2021/07/28 02:06:47;;;;;;;6.68;4.00;;;;;21.80;100746.00;;;;5070046;28;20668;-75
2021/07/28 02:09:14;;;;;;;5.18;4.18;;;;;21.80;100740.00;;;;5074508;28;20202;-75
2021/07/28 02:11:41;;;;;;;6.40;4.32;;;;;21.80;100734.00;;;;5080809;28;20244;-75
2021/07/28 02:14:08;;;;;;;4.90;3.75;;;;;21.80;100738.00;;;;5072833;28;20730;-75
2021/07/28 02:16:37;;;;;;;6.80;4.10;;;;;21.80;100735.00;;;;5073031;28;20230;-75
2021/07/28 02:19:04;;;;;;;6.70;4.55;;;;;21.80;100731.00;;;;5080326;28;20566;-75
2021/07/28 02:21:33;;;;;;;5.45;4.57;;;;;21.80;100738.00;;;;5070898;28;20195;-75
2021/07/28 02:24:01;;;;;;;7.55;4.35;;;;;21.80;100741.00;;;;5070038;28;20222;-75
2021/07/28 02:26:28;;;;;;;6.05;4.53;;;;;21.80;100735.00;;;;5074281;28;20210;-75
2021/07/28 02:28:55;;;;;;;6.20;5.00;;;;;21.90;100729.00;;;;5070104;28;20201;-75
2021/07/28 02:31:22;;;;;;;5.68;4.35;;;;;21.90;100727.00;;;;5086266;28;20190;-75
2021/07/28 02:33:51;;;;;;;6.47;4.75;;;;;21.90;100732.00;;;;5090492;28;20194;-75
2021/07/28 02:36:18;;;;;;;5.78;4.57;;;;;21.90;100733.00;;;;5073156;28;20608;-75
2021/07/28 02:38:45;;;;;;;6.63;4.60;;;;;21.90;100729.00;;;;5070294;28;20206;-76
2021/07/28 02:41:12;;;;;;;7.75;5.47;;;;;21.90;100727.00;;;;5069925;28;20252;-75
2021/07/28 02:43:39;;;;;;;6.40;4.40;;;;;22.00;100733.00;;;;5081576;28;20774;-76
2021/07/28 02:46:08;;;;;;;10.10;4.10;;;;;22.00;100726.00;;;;5077282;28;20194;-75
2021/07/28 02:48:35;;;;;;;5.70;4.25;;;;;22.00;100727.00;;;;5070361;28;20244;-75
2021/07/28 02:51:03;;;;;;;6.13;4.97;;;;;22.00;100716.00;;;;5069534;28;20195;-75
2021/07/28 02:53:31;;;;;;;4.90;3.90;;;;;22.00;100725.00;;;;5069720;28;20194;-75
2021/07/28 02:55:58;;;;;;;7.10;4.50;;;;;22.00;100716.00;;;;5082623;28;20230;-76
2021/07/28 02:58:25;;;;;;;4.97;4.00;;;;;22.00;100716.00;;;;5072038;28;20203;-76
2021/07/28 03:00:54;;;;;;;7.07;4.18;;;;;22.00;100716.00;;;;5069058;28;20562;-76
2021/07/28 03:03:22;;;;;;;5.22;4.10;;;;;22.10;100723.00;;;;5069705;28;20648;-75
2021/07/28 03:05:50;;;;;;;5.85;4.45;;;;;22.10;100729.00;;;;5069933;28;20280;-75
2021/07/28 03:08:18;;;;;;;5.43;4.15;;;;;22.10;100731.00;;;;5072966;28;20203;-75
2021/07/28 03:10:47;;;;;;;5.75;4.22;;;;;22.10;100728.00;;;;5080477;28;20247;-76
2021/07/28 03:13:14;;;;;;;5.10;4.18;;;;;22.10;100723.00;;;;5087992;28;20353;-76
2021/07/28 03:15:41;;;;;;;6.25;4.95;;;;;22.10;100731.00;;;;5082335;28;20195;-76
2021/07/28 03:18:09;;;;;;;10.98;4.32;;;;;22.10;100730.00;;;;5070142;28;20202;-75
2021/07/28 03:20:36;;;;;;;6.47;4.05;;;;;22.10;100724.00;;;;5072023;28;20211;-75
2021/07/28 03:23:03;;;;;;;8.43;4.90;;;;;22.10;100724.00;;;;5069366;28;20222;-75
2021/07/28 03:25:32;;;;;;;6.38;4.68;;;;;22.10;100729.00;;;;5068839;28;20206;-76
2021/07/28 03:27:59;;;;;;;6.13;4.60;;;;;22.20;100728.00;;;;5081015;28;20194;-76
2021/07/28 03:30:26;;;;;;;5.70;4.50;;;;;22.20;100721.00;;;;5093354;28;20257;-76
2021/07/28 03:32:54;;;;;;;6.18;4.60;;;;;22.20;100725.00;;;;5089544;28;20202;-76
2021/07/28 03:35:21;;;;;;;6.35;4.25;;;;;22.20;100717.00;;;;5079336;28;20206;-75
2021/07/28 03:37:48;;;;;;;6.25;4.38;;;;;22.20;100715.00;;;;5068879;28;20696;-75
2021/07/28 03:40:16;;;;;;;5.97;4.88;;;;;22.20;100712.00;;;;5069789;28;20195;-75
2021/07/28 03:42:47;;;;;;;6.07;4.47;;;;;22.20;100722.00;;;;5068874;28;20209;-75
2021/07/28 03:45:15;;;;;;;8.98;5.05;;;;;22.30;100721.00;;;;5069170;28;20198;-75
2021/07/28 03:47:42;;;;;;;6.18;4.72;;;;;22.30;100714.00;;;;5068821;28;20203;-76
2021/07/28 03:50:11;;;;;;;5.75;4.80;;;;;22.30;100716.00;;;;5068851;28;20198;-76
2021/07/28 03:52:38;;;;;;;5.70;4.40;;;;;22.30;100719.00;;;;5069608;28;20214;-76
2021/07/28 03:55:06;;;;;;;8.98;5.38;;;;;22.30;100714.00;;;;5069044;28;20191;-76
2021/07/28 03:57:34;;;;;;;7.75;4.28;;;;;22.30;100716.00;;;;5073863;28;20590;-76
2021/07/28 04:00:03;;;;;;;6.93;4.43;;;;;22.30;100721.00;;;;5083766;28;20237;-76
2021/07/28 04:02:30;;;;;;;7.25;5.18;;;;;22.30;100716.00;;;;5081625;28;20202;-76
2021/07/28 04:04:57;;;;;;;5.50;4.05;;;;;22.30;100724.00;;;;5068372;28;20207;-76
2021/07/28 04:07:24;;;;;;;7.20;5.03;;;;;22.40;100729.00;;;;5067910;28;20199;-76
2021/07/28 04:09:51;;;;;;;7.72;4.13;;;;;22.40;100722.00;;;;5067911;28;20195;-75
2021/07/28 04:12:20;;;;;;;5.00;4.20;;;;;22.40;100718.00;;;;5071039;28;20216;-76
2021/07/28 04:14:47;;;;;;;7.88;4.72;;;;;22.40;100721.00;;;;5087295;28;20186;-76
2021/07/28 04:17:15;;;;;;;6.78;5.22;;;;;22.40;100719.00;;;;5087345;28;20222;-76
2021/07/28 04:19:48;;;;;;;6.40;5.25;;;;;22.40;100719.00;;;;5085595;28;20209;-76
2021/07/28 04:22:16;;;;;;;6.30;4.93;;;;;22.40;100722.00;;;;5084194;28;20249;-76
2021/07/28 04:24:43;;;;;;;6.25;4.90;;;;;22.40;100718.00;;;;5086731;28;20202;-76
2021/07/28 04:27:10;;;;;;;6.32;5.38;;;;;22.40;100716.00;;;;5088715;28;20210;-76
2021/07/28 04:29:37;;;;;;;6.25;4.80;;;;;22.50;100716.00;;;;5106424;28;20197;-76
2021/07/28 04:32:05;;;;;;;5.53;4.60;;;;;22.50;100715.00;;;;5072750;28;20190;-76
2021/07/28 04:34:35;;;;;;;4.80;3.95;;;;;22.50;100717.00;;;;5068730;28;20194;-76
2021/07/28 04:37:02;;;;;;;6.22;4.57;;;;;22.50;100711.00;;;;5080411;28;20235;-76
2021/07/28 04:39:32;;;;;;;6.63;5.35;;;;;22.50;100708.00;;;;5085081;28;20199;-76
2021/07/28 04:42:00;;;;;;;6.78;5.30;;;;;22.50;100719.00;;;;5081355;28;20244;-76
2021/07/28 04:44:27;;;;;;;6.70;5.43;;;;;22.50;100717.00;;;;5086058;28;20683;-76
2021/07/28 04:46:56;;;;;;;6.68;4.68;;;;;22.50;100710.00;;;;5086743;28;20194;-76
2021/07/28 04:49:24;;;;;;;6.53;4.97;;;;;22.60;100716.00;;;;5088471;28;20297;-76
2021/07/28 04:51:52;;;;;;;6.75;5.15;;;;;22.60;100715.00;;;;5068740;28;20195;-76
2021/07/28 04:54:19;;;;;;;7.50;5.53;;;;;22.60;100705.00;;;;5086458;28;20248;-76
2021/07/28 04:56:47;;;;;;;6.22;4.97;;;;;22.60;100703.00;;;;5069466;28;20309;-75
2021/07/28 04:59:14;;;;;;;9.25;5.93;;;;;22.70;100712.00;;;;5105117;28;20197;-75
2021/07/28 05:01:41;;;;;;;7.18;6.32;;;;;22.70;100713.00;;;;5078171;28;20695;-76
2021/07/28 05:04:09;;;;;;;7.53;5.13;;;;;22.70;100704.00;;;;5082298;28;20194;-76
2021/07/28 05:06:40;;;;;;;5.85;5.25;;;;;22.70;100704.00;;;;5072408;28;20206;-76
2021/07/28 05:09:09;;;;;;;6.80;4.82;;;;;22.70;100706.00;;;;5077676;28;20273;-76
2021/07/28 05:11:37;;;;;;;6.28;5.00;;;;;22.80;100701.00;;;;5073753;28;20256;-75
2021/07/28 05:14:04;;;;;;;6.63;5.20;;;;;22.80;100709.00;;;;5066909;28;20199;-75
2021/07/28 05:16:32;;;;;;;7.15;5.95;;;;;22.80;100697.00;;;;5069356;28;20231;-76
2021/07/28 05:18:59;;;;;;;6.35;5.60;;;;;22.80;100700.00;;;;5071703;28;20191;-76
2021/07/28 05:21:26;;;;;;;7.25;6.15;;;;;22.80;100694.00;;;;5067801;28;20203;-76
2021/07/28 05:23:53;;;;;;;10.18;5.97;;;;;22.90;100699.00;;;;5072965;28;20202;-77
2021/07/28 05:26:22;;;;;;;6.38;5.25;;;;;22.80;100689.00;;;;5074431;28;20198;-76
2021/07/28 05:28:49;;;;;;;6.70;5.72;;;;;22.90;100689.00;;;;5080939;28;20206;-76
2021/07/28 05:31:16;;;;;;;8.88;5.88;;;;;22.90;100702.00;;;;5088565;28;20186;-75
2021/07/28 05:33:44;;;;;;;10.23;5.60;;;;;22.90;100696.00;;;;5088300;28;20194;-76
2021/07/28 05:36:11;;;;;;;11.98;7.55;;;;;22.90;100695.00;;;;5088229;28;20793;-75
2021/07/28 05:38:38;;;;;;;8.55;6.70;;;;;22.90;100692.00;;;;5085153;28;20229;-75
2021/07/28 05:41:05;;;;;;;9.68;6.88;;;;;23.00;100705.00;;;;5088759;28;20206;-75
2021/07/28 05:43:34;;;;;;;7.88;6.43;;;;;23.00;100704.00;;;;5084720;28;20664;-75
2021/07/28 05:46:01;;;;;;;8.68;6.70;;;;;23.10;100705.00;;;;5087199;28;20198;-75
2021/07/28 05:48:31;;;;;;;10.07;7.03;;;;;23.10;100712.00;;;;5090962;28;21035;-75
2021/07/28 05:50:59;;;;;;;7.70;6.50;;;;;23.10;100714.00;;;;5083042;28;20248;-76
2021/07/28 05:53:26;;;;;;;10.13;7.32;;;;;23.10;100713.00;;;;5088825;28;20222;-76
2021/07/28 05:55:55;;;;;;;7.95;7.15;;;;;23.20;100717.00;;;;5086005;28;20210;-76
2021/07/28 05:58:22;;;;;;;8.85;7.05;;;;;23.20;100725.00;;;;5079923;28;20230;-76
2021/07/28 06:00:50;;;;;;;9.43;7.22;;;;;23.20;100719.00;;;;5087303;28;20218;-76
2021/07/28 06:03:18;;;;;;;10.52;7.70;;;;;23.20;100714.00;;;;5088216;28;20202;-75
2021/07/28 06:05:45;;;;;;;9.02;6.72;;;;;23.20;100719.00;;;;5086494;28;20194;-75
2021/07/28 06:08:12;;;;;;;15.77;11.40;;;;;23.20;100718.00;;;;5084425;28;20456;-76
2021/07/28 06:10:40;;;;;;;11.98;8.82;;;;;23.30;100721.00;;;;5085402;28;20201;-76
2021/07/28 06:13:08;;;;;;;8.48;7.32;;;;;23.30;100721.00;;;;5083712;28;20628;-76
2021/07/28 06:15:35;;;;;;;9.32;6.78;;;;;23.30;100717.00;;;;5084897;28;20599;-76
2021/07/28 06:18:03;;;;;;;7.50;6.10;;;;;23.30;100712.00;;;;5085069;28;20227;-76
2021/07/28 06:20:31;;;;;;;7.47;6.35;;;;;23.30;100717.00;;;;5088205;28;20206;-76
2021/07/28 06:22:58;;;;;;;7.78;6.82;;;;;23.30;100715.00;;;;5084296;28;20206;-77
2021/07/28 06:25:25;;;;;;;9.40;7.00;;;;;23.30;100711.00;;;;5081339;28;20193;-77
2021/07/28 06:27:52;;;;;;;10.80;7.50;;;;;23.30;100717.00;;;;5087716;28;20194;-77
2021/07/28 06:30:20;;;;;;;7.97;6.15;;;;;23.30;100721.00;;;;5087017;28;20213;-77
2021/07/28 06:32:47;;;;;;;8.45;6.75;;;;;23.40;100720.00;;;;5080363;28;20210;-76
2021/07/28 06:35:16;;;;;;;8.40;7.53;;;;;23.40;100722.00;;;;5081916;28;20209;-76
2021/07/28 06:37:43;;;;;;;8.63;7.72;;;;;23.40;100720.00;;;;5085663;28;20253;-77
2021/07/28 06:40:12;;;;;;;8.52;7.57;;;;;23.50;100721.00;;;;5089884;28;20208;-77
2021/07/28 06:42:39;;;;;;;11.93;7.20;;;;;23.50;100721.00;;;;5088698;28;20199;-77
2021/07/28 06:45:07;;;;;;;9.52;7.95;;;;;23.60;100724.00;;;;5087105;28;20200;-77
2021/07/28 06:47:34;;;;;;;10.20;7.60;;;;;23.60;100713.00;;;;5092000;28;20205;-77
2021/07/28 06:50:03;;;;;;;10.25;7.05;;;;;23.70;100724.00;;;;5076251;28;20576;-78
2021/07/28 06:52:31;;;;;;;11.15;8.75;;;;;23.80;100719.00;;;;5081075;28;20199;-77
2021/07/28 06:54:58;;;;;;;10.30;8.50;;;;;23.80;100724.00;;;;5091959;28;20209;-77
2021/07/28 06:57:26;;;;;;;10.70;8.82;;;;;23.80;100729.00;;;;5080934;28;20604;-77
2021/07/28 06:59:53;;;;;;;10.35;8.50;;;;;23.90;100730.00;;;;5086946;28;20195;-78
2021/07/28 07:02:20;;;;;;;11.95;8.90;;;;;23.90;100736.00;;;;5087824;28;20259;-77
2021/07/28 07:04:48;;;;;;;8.15;7.28;;;;;23.90;100726.00;;;;5084066;28;20202;-79
2021/07/28 07:07:15;;;;;;;7.63;6.13;;;;;24.00;100724.00;;;;5083816;28;20202;-77
2021/07/28 07:09:43;;;;;;;7.72;6.38;;;;;24.00;100725.00;;;;5076040;28;20191;-76
2021/07/28 07:12:11;;;;;;;8.02;6.22;;;;;24.00;100722.00;;;;5086298;28;20206;-76
2021/07/28 07:14:39;;;;;;;7.68;5.72;;;;;24.00;100719.00;;;;5083659;28;20191;-76
2021/07/28 07:17:07;;;;;;;7.00;6.05;;;;;24.00;100717.00;;;;5084146;28;20218;-78
2021/07/28 07:19:34;;;;;;;7.28;6.00;;;;;24.10;100715.00;;;;5080736;28;20214;-80
2021/07/28 07:22:01;;;;;;;9.40;6.18;;;;;24.20;100723.00;;;;5082671;28;20592;-79
2021/07/28 07:24:29;;;;;;;7.13;5.28;;;;;24.20;100715.00;;;;5083225;28;20198;-77
2021/07/28 07:27:00;;;;;;;7.28;5.85;;;;;24.20;100713.00;;;;5078583;28;20389;-78
2021/07/28 07:29:27;;;;;;;6.03;4.90;;;;;24.30;100719.00;;;;5082148;28;20657;-79
2021/07/28 07:31:54;;;;;;;6.90;5.20;;;;;24.40;100718.00;;;;5083162;28;20209;-78
2021/07/28 07:34:22;;;;;;;7.85;4.72;;;;;24.50;100715.00;;;;5085030;28;20205;-79
2021/07/28 07:36:49;;;;;;;5.45;4.65;;;;;24.50;100715.00;;;;5081430;28;20218;-78
2021/07/28 07:39:16;;;;;;;4.55;4.10;;;;;24.60;100705.00;;;;5079414;28;20222;-79
2021/07/28 07:41:44;;;;;;;4.03;3.53;;;;;24.60;100714.00;;;;5078201;28;20766;-78
2021/07/28 07:44:12;;;;;;;5.05;3.83;;;;;24.70;100705.00;;;;5071260;28;20199;-76
2021/07/28 07:46:39;;;;;;;6.13;5.13;;;;;24.70;100720.00;;;;5077803;28;20206;-77
2021/07/28 07:49:07;;;;;;;5.63;4.70;;;;;24.70;100716.00;;;;5073930;28;20224;-76
2021/07/28 07:51:34;;;;;;;4.63;4.22;;;;;24.70;100708.00;;;;5073967;28;20203;-77
2021/07/28 07:54:01;;;;;;;6.03;4.57;;;;;24.70;100718.00;;;;5067916;28;20203;-75
2021/07/28 07:56:28;;;;;;;4.63;4.13;;;;;24.70;100713.00;;;;5078084;28;20199;-77
2021/07/28 07:58:56;;;;;;;5.50;3.90;;;;;24.70;100724.00;;;;5079743;28;20225;-77
2021/07/28 08:01:24;;;;;;;3.95;3.40;;;;;24.60;100725.00;;;;5077672;28;20197;-78
2021/07/28 08:03:51;;;;;;;3.88;3.47;;;;;24.60;100723.00;;;;5080181;28;20195;-78
2021/07/28 08:06:19;;;;;;;4.97;4.20;;;;;24.60;100710.00;;;;5079064;28;20277;-77
2021/07/28 08:08:46;;;;;;;5.07;3.38;;;;;24.60;100725.00;;;;5070921;28;20828;-78
2021/07/28 08:11:14;;;;;;;3.35;3.03;;;;;24.70;100712.00;;;;5077148;28;20209;-77
2021/07/28 08:13:42;;;;;;;5.75;3.15;;;;;24.70;100721.00;;;;5072043;28;20199;-78
2021/07/28 08:16:16;;;;;;;3.75;2.88;;;;;24.70;100718.00;;;;5070114;28;20548;-76
2021/07/28 08:18:44;;;;;;;3.00;2.67;;;;;24.80;100701.00;;;;5069731;28;20222;-75
2021/07/28 08:21:12;;;;;;;4.20;2.25;;;;;24.90;100703.00;;;;5070065;28;20206;-76
2021/07/28 08:23:40;;;;;;;3.95;2.60;;;;;25.00;100708.00;;;;5072771;28;20218;-76
2021/07/28 08:26:07;;;;;;;3.20;2.83;;;;;25.10;100718.00;;;;5075693;28;20673;-77
2021/07/28 08:28:35;;;;;;;3.63;3.25;;;;;25.20;100712.00;;;;5093681;28;20200;-78
2021/07/28 08:31:02;;;;;;;8.70;3.53;;;;;25.30;100706.00;;;;5067164;28;20203;-78
2021/07/28 08:33:29;;;;;;;4.03;3.15;;;;;25.40;100709.00;;;;5067421;28;20202;-77
2021/07/28 08:36:01;;;;;;;3.97;3.40;;;;;25.40;100715.00;;;;5066850;28;20226;-77
2021/07/28 08:38:29;;;;;;;4.68;3.35;;;;;25.40;100714.00;;;;5085479;28;20226;-77
2021/07/28 08:41:00;;;;;;;3.85;3.47;;;;;25.40;100718.00;;;;5073703;28;20191;-77
2021/07/28 08:43:30;;;;;;;3.28;2.97;;;;;25.40;100718.00;;;;5073562;28;20202;-78
2021/07/28 08:45:59;;;;;;;4.18;3.40;;;;;25.30;100729.00;;;;5082968;28;20205;-77
2021/07/28 08:48:29;;;;;;;5.93;3.67;;;;;25.30;100716.00;;;;5079665;28;20202;-75
2021/07/28 08:50:58;;;;;;;3.30;3.00;;;;;25.30;100721.00;;;;5068890;28;20222;-74
2021/07/28 08:53:26;;;;;;;4.45;3.45;;;;;25.20;100710.00;;;;5073262;28;20230;-75
2021/07/28 08:55:54;;;;;;;3.88;3.05;;;;;25.20;100712.00;;;;5067210;28;20203;-75
2021/07/28 08:58:24;;;;;;;3.75;3.25;;;;;25.20;100709.00;;;;5073603;28;20226;-76
2021/07/28 09:00:53;;;;;;;4.20;3.25;;;;;25.20;100715.00;;;;5070657;28;20669;-74
2021/07/28 09:03:20;;;;;;;3.88;3.58;;;;;25.20;100716.00;;;;5077529;28;20207;-74
2021/07/28 09:05:48;;;;;;;3.50;3.20;;;;;25.20;100724.00;;;;5084921;28;20206;-75
2021/07/28 09:08:25;;;;;;;3.47;2.90;;;;;25.10;100714.00;;;;5074349;28;20207;-76
2021/07/28 09:10:54;;;;;;;4.15;3.55;;;;;25.10;100726.00;;;;5072728;28;20218;-76
2021/07/28 09:13:32;;;;;;;5.38;3.22;;;;;25.00;100718.00;;;;5093909;28;20195;-76
2021/07/28 09:16:02;;;;;;;4.75;2.78;;;;;25.00;100725.00;;;;5087821;28;20857;-74
2021/07/28 09:18:40;;;;;;;3.22;3.03;;;;;24.90;100721.00;;;;5088224;28;20222;-74
2021/07/28 09:21:24;;;;;;;2.92;2.70;;;;;25.00;100715.00;;;;5081398;28;20198;-75
2021/07/28 09:23:56;;;;;;;4.43;3.08;;;;;24.90;100714.00;;;;5084769;28;20210;-75
2021/07/28 09:26:38;;;;;;;3.42;3.13;;;;;24.80;100711.00;;;;5089677;28;20206;-74
2021/07/28 09:29:08;;;;;;;4.43;2.63;;;;;24.90;100713.00;;;;5079995;28;20195;-76
2021/07/28 09:31:38;;;;;;;3.20;2.50;;;;;24.80;100727.00;;;;5079607;28;20203;-77
2021/07/28 09:34:30;;;;;;;2.88;2.30;;;;;24.70;100723.00;;;;5077636;28;20195;-78
2021/07/28 09:36:58;;;;;;;2.63;2.42;;;;;24.80;100725.00;;;;5090135;28;20771;-78
2021/07/28 09:39:28;;;;;;;4.40;2.42;;;;;24.80;100723.00;;;;5072724;28;20245;-79
2021/07/28 09:41:57;;;;;;;3.17;2.65;;;;;24.80;100726.00;;;;5084015;28;20213;-78
2021/07/28 09:44:26;;;;;;;4.70;2.75;;;;;24.80;100720.00;;;;5082013;28;20202;-79
2021/07/28 09:47:05;;;;;;;4.50;3.03;;;;;24.70;100732.00;;;;5077934;28;20660;-79
2021/07/28 09:49:32;;;;;;;2.78;2.58;;;;;24.80;100729.00;;;;5080125;28;20194;-78
2021/07/28 09:52:00;;;;;;;4.20;2.65;;;;;24.80;100731.00;;;;5074947;28;20206;-78
2021/07/28 09:54:30;;;;;;;3.63;2.72;;;;;24.80;100728.00;;;;5084889;28;20195;-78
2021/07/28 09:56:58;;;;;;;3.03;2.63;;;;;24.80;100725.00;;;;5074284;28;20726;-79
2021/07/28 09:59:27;;;;;;;4.45;2.63;;;;;24.90;100731.00;;;;5073297;28;20221;-78
2021/07/28 10:01:55;;;;;;;3.22;2.88;;;;;24.90;100724.00;;;;5076634;28;20249;-79
2021/07/28 10:04:28;;;;;;;2.85;2.63;;;;;24.90;100730.00;;;;5077209;28;20202;-79
2021/07/28 10:06:55;;;;;;;4.53;2.65;;;;;25.00;100723.00;;;;5071959;28;20206;-78
2021/07/28 10:09:30;;;;;;;3.08;2.78;;;;;25.00;100733.00;;;;5080121;28;20202;-76
2021/07/28 10:12:00;;;;;;;2.90;2.33;;;;;25.10;100726.00;;;;5080094;28;20194;-76
2021/07/28 10:14:28;;;;;;;5.35;2.65;;;;;25.10;100728.00;;;;5086327;28;20199;-77
2021/07/28 10:16:55;;;;;;;6.63;2.28;;;;;25.10;100730.00;;;;5082902;28;20720;-76
2021/07/28 10:19:23;;;;;;;2.65;2.03;;;;;25.10;100726.00;;;;5073105;28;20231;-77
2021/07/28 10:21:51;;;;;;;3.97;2.28;;;;;25.20;100730.00;;;;5099777;28;20201;-77
2021/07/28 10:24:18;;;;;;;3.47;1.60;;;;;25.20;100725.00;;;;5085408;28;20290;-77
2021/07/28 10:26:51;;;;;;;2.40;1.80;;;;;25.20;100728.00;;;;5084952;28;20197;-77
2021/07/28 10:29:19;;;;;;;3.30;1.85;;;;;25.30;100730.00;;;;5082153;28;20206;-78
2021/07/28 10:31:47;;;;;;;3.70;2.38;;;;;25.40;100725.00;;;;5071398;28;20199;-77
2021/07/28 10:34:25;;;;;;;2.70;2.25;;;;;25.40;100723.00;;;;5086094;28;20203;-77
2021/07/28 10:36:54;;;;;;;5.53;2.00;;;;;25.50;100712.00;;;;5079597;28;20223;-77
2021/07/28 10:39:41;;;;;;;3.15;2.22;;;;;25.50;100711.00;;;;5080904;28;20577;-76
2021/07/28 10:42:11;;;;;;;3.20;2.22;;;;;25.60;100719.00;;;;5089455;28;20204;-76
2021/07/28 10:45:01;;;;;;;4.18;2.33;;;;;25.50;100719.00;;;;5093536;28;20199;-76
2021/07/28 10:47:42;;;;;;;3.40;2.03;;;;;25.60;100715.00;;;;5069352;28;20199;-76
2021/07/28 10:50:25;;;;;;;2.50;2.15;;;;;25.70;100716.00;;;;5071350;28;20238;-77
2021/07/28 10:52:53;;;;;;;2.42;2.15;;;;;25.80;100724.00;;;;5078602;28;20199;-77
2021/07/28 10:55:22;;;;;;;2.65;2.45;;;;;25.90;100716.00;;;;5077148;28;20203;-77
2021/07/28 10:58:22;;;;;;;2.60;1.83;;;;;25.90;100709.00;;;;5081020;28;20213;-77
2021/07/28 11:01:00;;;;;;;1.70;1.45;;;;;26.10;100713.00;;;;5069433;28;20579;-78
2021/07/28 11:03:38;;;;;;;2.53;1.70;;;;;26.10;100715.00;;;;5099686;28;20205;-77
2021/07/28 11:06:23;;;;;;;2.60;1.85;;;;;26.20;100706.00;;;;5080408;28;20632;-76
2021/07/28 11:08:51;;;;;;;2.28;1.95;;;;;26.40;100711.00;;;;5069537;28;20768;-76
2021/07/28 11:11:24;;;;;;;3.55;2.10;;;;;26.50;100715.00;;;;5074671;28;20202;-77
2021/07/28 11:13:51;;;;;;;4.00;1.80;;;;;26.60;100709.00;;;;5078013;28;20194;-77
2021/07/28 11:16:22;;;;;;;4.22;1.70;;;;;26.70;100716.00;;;;5075947;28;20207;-77
2021/07/28 11:18:51;;;;;;;5.10;1.90;;;;;26.80;100729.00;;;;5074756;28;20276;-77
2021/07/28 11:21:20;;;;;;;3.78;1.90;;;;;26.90;100728.00;;;;5082143;28;20198;-76
2021/07/28 11:23:51;;;;;;;2.45;1.95;;;;;26.90;100726.00;;;;5070408;28;20582;-77
2021/07/28 11:26:21;;;;;;;4.60;1.50;;;;;26.90;100725.00;;;;5074121;28;20692;-76
2021/07/28 11:28:50;;;;;;;4.45;2.00;;;;;26.90;100720.00;;;;5090491;28;20206;-76
2021/07/28 11:31:26;;;;;;;2.30;1.85;;;;;26.90;100724.00;;;;5087676;28;20209;-76
2021/07/28 11:34:02;;;;;;;2.30;2.08;;;;;27.00;100726.00;;;;5069220;28;20197;-77
2021/07/28 11:36:29;;;;;;;2.40;2.20;;;;;27.00;100721.00;;;;5077462;28;20234;-77
2021/07/28 11:38:56;;;;;;;2.50;2.00;;;;;26.90;100722.00;;;;5074665;28;20243;-76
2021/07/28 11:41:24;;;;;;;2.05;1.85;;;;;26.90;100719.00;;;;5089979;28;20210;-77
2021/07/28 11:43:56;;;;;;;5.80;3.20;;;;;26.90;100729.00;;;;5080554;28;20186;-76
2021/07/28 11:46:25;;;;;;;1.98;1.88;;;;;26.80;100735.00;;;;5085433;28;20581;-76
2021/07/28 11:48:56;;;;;;;3.95;2.05;;;;;26.70;100740.00;;;;5085300;28;20679;-77
2021/07/28 11:51:25;;;;;;;3.08;2.03;;;;;26.70;100735.00;;;;5084786;28;20202;-76
2021/07/28 11:53:54;;;;;;;2.42;2.00;;;;;26.60;100731.00;;;;5081876;28;20202;-77
2021/07/28 11:56:22;;;;;;;2.88;1.80;;;;;26.60;100726.00;;;;5085025;28;20604;-77
2021/07/28 11:58:52;;;;;;;2.60;1.95;;;;;26.60;100736.00;;;;5082898;28;20218;-77
2021/07/28 12:01:25;;;;;;;3.45;1.85;;;;;26.60;100734.00;;;;5083425;28;20202;-76
2021/07/28 12:03:56;;;;;;;4.25;1.90;;;;;26.70;100737.00;;;;5083875;28;20195;-76
2021/07/28 12:06:31;;;;;;;2.75;1.80;;;;;26.70;100733.00;;;;5086155;28;20551;-78
2021/07/28 12:09:09;;;;;;;2.75;1.33;;;;;26.70;100732.00;;;;5075831;28;20197;-76
2021/07/28 12:12:02;;;;;;;3.80;1.65;;;;;26.70;100733.00;;;;5075161;28;20199;-77
2021/07/28 12:14:32;;;;;;;1.73;1.45;;;;;26.80;100751.00;;;;5057611;28;20199;-76
2021/07/28 12:17:02;;;;;;;6.22;2.30;;;;;26.90;100728.00;;;;5071447;28;20657;-76
2021/07/28 12:19:31;;;;;;;2.70;2.00;;;;;26.90;100737.00;;;;5069789;28;20230;-77